sensor_id;sensor_type;location;lat;lon;timestamp;P1;durP1;ratioP1;P2;durP2;ratioP2
8594;SDS011;4335;48.860;9.198;2023-02-28T00:01:19;3.20;;;2.53;;
8594;SDS011;4335;48.860;9.198;2023-02-28T00:03:48;2.77;;;2.40;;
8594;SDS011;4335;48.860;9.198;2023-02-28T00:06:15;2.83;;;2.07;;
8594;SDS011;4335;48.860;9.198;2023-02-28T00:08:49;5.53;;;2.87;;
8594;SDS011;4335;48.860;9.198;2023-02-28T00:11:16;3.67;;;2.70;;
8594;SDS011;4335;48.860;9.198;2023-02-28T00:13:44;3.10;;;2.47;;
8594;SDS011;4335;48.860;9.198;2023-02-28T00:16:14;4.23;;;2.53;;
8594;SDS011;4335;48.860;9.198;2023-02-28T00:18:42;3.93;;;2.93;;
8594;SDS011;4335;48.860;9.198;2023-02-28T00:21:09;2.83;;;2.63;;
8594;SDS011;4335;48.860;9.198;2023-02-28T00:23:36;2.77;;;2.30;;
8594;SDS011;4335;48.860;9.198;2023-02-28T00:26:03;3.80;;;2.63;;
8594;SDS011;4335;48.860;9.198;2023-02-28T00:28:36;2.70;;;2.47;;
8594;SDS011;4335;48.860;9.198;2023-02-28T00:31:02;2.87;;;2.63;;
8594;SDS011;4335;48.860;9.198;2023-02-28T00:33:30;4.30;;;2.70;;
8594;SDS011;4335;48.860;9.198;2023-02-28T00:36:06;4.23;;;2.70;;
8594;SDS011;4335;48.860;9.198;2023-02-28T00:38:35;2.93;;;2.53;;
8594;SDS011;4335;48.860;9.198;2023-02-28T00:41:02;3.20;;;3.00;;
8594;SDS011;4335;48.860;9.198;2023-02-28T00:43:36;4.47;;;3.43;;
8594;SDS011;4335;48.860;9.198;2023-02-28T00:46:05;3.10;;;2.80;;
8594;SDS011;4335;48.860;9.198;2023-02-28T00:48:32;4.07;;;3.10;;
8594;SDS011;4335;48.860;9.198;2023-02-28T00:50:59;3.30;;;3.00;;
8594;SDS011;4335;48.860;9.198;2023-02-28T00:53:26;3.80;;;3.47;;
8594;SDS011;4335;48.860;9.198;2023-02-28T00:56:01;3.70;;;3.10;;
8594;SDS011;4335;48.860;9.198;2023-02-28T00:58:29;4.20;;;2.53;;
8594;SDS011;4335;48.860;9.198;2023-02-28T01:00:55;3.40;;;2.70;;
8594;SDS011;4335;48.860;9.198;2023-02-28T01:03:22;3.50;;;3.20;;
8594;SDS011;4335;48.860;9.198;2023-02-28T01:05:49;3.17;;;2.87;;
8594;SDS011;4335;48.860;9.198;2023-02-28T01:08:16;2.83;;;2.57;;
8594;SDS011;4335;48.860;9.198;2023-02-28T01:10:45;4.77;;;3.23;;
8594;SDS011;4335;48.860;9.198;2023-02-28T01:13:13;4.23;;;3.13;;
8594;SDS011;4335;48.860;9.198;2023-02-28T01:15:41;3.70;;;3.00;;
8594;SDS011;4335;48.860;9.198;2023-02-28T01:18:14;4.37;;;3.23;;
8594;SDS011;4335;48.860;9.198;2023-02-28T01:20:40;4.90;;;3.13;;
8594;SDS011;4335;48.860;9.198;2023-02-28T01:23:11;3.50;;;3.20;;
8594;SDS011;4335;48.860;9.198;2023-02-28T01:25:38;4.43;;;4.03;;
8594;SDS011;4335;48.860;9.198;2023-02-28T01:28:05;4.30;;;3.13;;
8594;SDS011;4335;48.860;9.198;2023-02-28T01:30:32;3.87;;;2.80;;
8594;SDS011;4335;48.860;9.198;2023-02-28T01:32:59;3.83;;;3.20;;
8594;SDS011;4335;48.860;9.198;2023-02-28T01:35:26;3.57;;;3.23;;
8594;SDS011;4335;48.860;9.198;2023-02-28T01:37:53;8.10;;;4.10;;
8594;SDS011;4335;48.860;9.198;2023-02-28T01:40:19;4.33;;;3.53;;
8594;SDS011;4335;48.860;9.198;2023-02-28T01:42:46;4.57;;;3.10;;
8594;SDS011;4335;48.860;9.198;2023-02-28T01:45:20;4.00;;;3.07;;
8594;SDS011;4335;48.860;9.198;2023-02-28T01:47:52;5.03;;;3.03;;
8594;SDS011;4335;48.860;9.198;2023-02-28T01:50:23;4.87;;;3.50;;
8594;SDS011;4335;48.860;9.198;2023-02-28T01:52:52;3.90;;;3.50;;
8594;SDS011;4335;48.860;9.198;2023-02-28T01:55:23;3.30;;;2.93;;
8594;SDS011;4335;48.860;9.198;2023-02-28T01:57:55;4.23;;;3.30;;
8594;SDS011;4335;48.860;9.198;2023-02-28T02:00:24;4.27;;;3.67;;
8594;SDS011;4335;48.860;9.198;2023-02-28T02:02:53;3.50;;;3.20;;
8594;SDS011;4335;48.860;9.198;2023-02-28T02:05:24;4.73;;;3.23;;
8594;SDS011;4335;48.860;9.198;2023-02-28T02:07:56;4.70;;;3.53;;
8594;SDS011;4335;48.860;9.198;2023-02-28T02:10:27;3.87;;;3.40;;
8594;SDS011;4335;48.860;9.198;2023-02-28T02:15:54;3.97;;;3.50;;
8594;SDS011;4335;48.860;9.198;2023-02-28T02:18:36;5.73;;;3.20;;
8594;SDS011;4335;48.860;9.198;2023-02-28T02:30:44;3.63;;;3.33;;
8594;SDS011;4335;48.860;9.198;2023-02-28T02:36:45;3.67;;;3.37;;
8594;SDS011;4335;48.860;9.198;2023-02-28T02:39:18;3.93;;;3.13;;
8594;SDS011;4335;48.860;9.198;2023-02-28T02:41:51;3.43;;;3.10;;
8594;SDS011;4335;48.860;9.198;2023-02-28T02:44:20;3.87;;;3.47;;
8594;SDS011;4335;48.860;9.198;2023-02-28T02:46:50;3.43;;;3.07;;
8594;SDS011;4335;48.860;9.198;2023-02-28T02:49:24;3.87;;;3.37;;
8594;SDS011;4335;48.860;9.198;2023-02-28T02:51:57;4.30;;;3.90;;
8594;SDS011;4335;48.860;9.198;2023-02-28T02:54:30;5.10;;;3.77;;
8594;SDS011;4335;48.860;9.198;2023-02-28T02:57:01;5.83;;;3.57;;
8594;SDS011;4335;48.860;9.198;2023-02-28T02:59:36;3.77;;;3.40;;
8594;SDS011;4335;48.860;9.198;2023-02-28T03:02:06;6.03;;;3.47;;
8594;SDS011;4335;48.860;9.198;2023-02-28T03:04:39;4.60;;;3.60;;
8594;SDS011;4335;48.860;9.198;2023-02-28T03:07:10;4.27;;;3.50;;
8594;SDS011;4335;48.860;9.198;2023-02-28T03:09:36;6.23;;;4.23;;
8594;SDS011;4335;48.860;9.198;2023-02-28T03:12:04;3.73;;;3.43;;
8594;SDS011;4335;48.860;9.198;2023-02-28T03:14:39;4.40;;;4.00;;
8594;SDS011;4335;48.860;9.198;2023-02-28T03:17:18;4.20;;;3.80;;
8594;SDS011;4335;48.860;9.198;2023-02-28T03:20:07;5.50;;;3.70;;
8594;SDS011;4335;48.860;9.198;2023-02-28T03:22:45;4.37;;;3.80;;
8594;SDS011;4335;48.860;9.198;2023-02-28T03:25:18;4.70;;;4.00;;
8594;SDS011;4335;48.860;9.198;2023-02-28T03:27:53;4.90;;;4.40;;
8594;SDS011;4335;48.860;9.198;2023-02-28T03:30:27;5.07;;;3.50;;
8594;SDS011;4335;48.860;9.198;2023-02-28T03:33:02;4.80;;;4.23;;
8594;SDS011;4335;48.860;9.198;2023-02-28T03:35:39;4.57;;;3.57;;
8594;SDS011;4335;48.860;9.198;2023-02-28T03:38:10;4.83;;;4.07;;
8594;SDS011;4335;48.860;9.198;2023-02-28T03:40:42;4.83;;;4.10;;
8594;SDS011;4335;48.860;9.198;2023-02-28T03:43:18;5.83;;;4.40;;
8594;SDS011;4335;48.860;9.198;2023-02-28T03:45:50;5.33;;;4.40;;
8594;SDS011;4335;48.860;9.198;2023-02-28T03:48:18;5.03;;;4.27;;
8594;SDS011;4335;48.860;9.198;2023-02-28T03:50:48;3.97;;;3.57;;
8594;SDS011;4335;48.860;9.198;2023-02-28T03:53:21;6.03;;;4.23;;
8594;SDS011;4335;48.860;9.198;2023-02-28T03:55:56;4.03;;;3.63;;
8594;SDS011;4335;48.860;9.198;2023-02-28T03:58:30;5.23;;;3.93;;
8594;SDS011;4335;48.860;9.198;2023-02-28T04:01:01;6.20;;;4.03;;
8594;SDS011;4335;48.860;9.198;2023-02-28T04:03:33;8.43;;;4.30;;
8594;SDS011;4335;48.860;9.198;2023-02-28T04:06:01;4.37;;;3.87;;
8594;SDS011;4335;48.860;9.198;2023-02-28T04:08:29;4.43;;;4.03;;
8594;SDS011;4335;48.860;9.198;2023-02-28T04:10:57;4.10;;;3.67;;
8594;SDS011;4335;48.860;9.198;2023-02-28T04:13:28;6.00;;;4.43;;
8594;SDS011;4335;48.860;9.198;2023-02-28T04:15:55;4.67;;;4.03;;
8594;SDS011;4335;48.860;9.198;2023-02-28T04:18:24;6.37;;;4.67;;
8594;SDS011;4335;48.860;9.198;2023-02-28T04:20:51;5.77;;;4.33;;
8594;SDS011;4335;48.860;9.198;2023-02-28T04:23:18;4.70;;;4.20;;
8594;SDS011;4335;48.860;9.198;2023-02-28T04:25:48;4.63;;;4.10;;
8594;SDS011;4335;48.860;9.198;2023-02-28T04:28:19;6.90;;;3.30;;
8594;SDS011;4335;48.860;9.198;2023-02-28T04:30:45;6.67;;;4.23;;
8594;SDS011;4335;48.860;9.198;2023-02-28T04:33:12;4.67;;;4.27;;
8594;SDS011;4335;48.860;9.198;2023-02-28T04:35:39;7.03;;;4.57;;
8594;SDS011;4335;48.860;9.198;2023-02-28T04:38:05;7.53;;;4.30;;
8594;SDS011;4335;48.860;9.198;2023-02-28T04:40:32;5.87;;;4.57;;
8594;SDS011;4335;48.860;9.198;2023-02-28T04:43:02;4.87;;;4.20;;
8594;SDS011;4335;48.860;9.198;2023-02-28T04:45:29;5.90;;;4.03;;
8594;SDS011;4335;48.860;9.198;2023-02-28T04:47:57;4.93;;;4.43;;
8594;SDS011;4335;48.860;9.198;2023-02-28T04:50:24;12.00;;;4.03;;
8594;SDS011;4335;48.860;9.198;2023-02-28T04:52:50;5.63;;;4.50;;
8594;SDS011;4335;48.860;9.198;2023-02-28T04:55:17;6.13;;;3.80;;
8594;SDS011;4335;48.860;9.198;2023-02-28T04:57:46;5.57;;;4.93;;
8594;SDS011;4335;48.860;9.198;2023-02-28T05:00:15;5.53;;;4.47;;
8594;SDS011;4335;48.860;9.198;2023-02-28T05:02:42;5.87;;;4.00;;
8594;SDS011;4335;48.860;9.198;2023-02-28T05:05:12;6.03;;;4.47;;
8594;SDS011;4335;48.860;9.198;2023-02-28T05:07:43;6.30;;;4.63;;
8594;SDS011;4335;48.860;9.198;2023-02-28T05:10:12;6.20;;;4.50;;
8594;SDS011;4335;48.860;9.198;2023-02-28T05:12:39;4.67;;;4.17;;
8594;SDS011;4335;48.860;9.198;2023-02-28T05:15:09;6.47;;;4.60;;
8594;SDS011;4335;48.860;9.198;2023-02-28T05:17:40;6.33;;;4.37;;
8594;SDS011;4335;48.860;9.198;2023-02-28T05:20:07;7.10;;;4.70;;
8594;SDS011;4335;48.860;9.198;2023-02-28T05:22:39;5.13;;;4.00;;
8594;SDS011;4335;48.860;9.198;2023-02-28T05:25:08;5.97;;;4.57;;
8594;SDS011;4335;48.860;9.198;2023-02-28T05:27:38;5.10;;;4.47;;
8594;SDS011;4335;48.860;9.198;2023-02-28T05:30:08;6.37;;;4.57;;
8594;SDS011;4335;48.860;9.198;2023-02-28T05:32:36;5.17;;;4.67;;
8594;SDS011;4335;48.860;9.198;2023-02-28T05:35:06;6.77;;;4.67;;
8594;SDS011;4335;48.860;9.198;2023-02-28T05:37:33;4.40;;;4.00;;
8594;SDS011;4335;48.860;9.198;2023-02-28T05:40:03;6.10;;;5.10;;
8594;SDS011;4335;48.860;9.198;2023-02-28T05:42:32;6.00;;;4.53;;
8594;SDS011;4335;48.860;9.198;2023-02-28T05:44:58;5.07;;;4.53;;
8594;SDS011;4335;48.860;9.198;2023-02-28T05:47:32;4.80;;;4.33;;
8594;SDS011;4335;48.860;9.198;2023-02-28T05:50:02;6.93;;;5.40;;
8594;SDS011;4335;48.860;9.198;2023-02-28T05:52:30;8.13;;;4.73;;
8594;SDS011;4335;48.860;9.198;2023-02-28T05:54:57;6.83;;;5.50;;
8594;SDS011;4335;48.860;9.198;2023-02-28T05:57:26;5.83;;;5.23;;
8594;SDS011;4335;48.860;9.198;2023-02-28T05:59:53;5.50;;;4.77;;
8594;SDS011;4335;48.860;9.198;2023-02-28T06:02:19;6.53;;;5.00;;
8594;SDS011;4335;48.860;9.198;2023-02-28T06:04:49;6.07;;;4.37;;
8594;SDS011;4335;48.860;9.198;2023-02-28T06:07:19;8.03;;;4.50;;
8594;SDS011;4335;48.860;9.198;2023-02-28T06:09:47;6.93;;;5.03;;
8594;SDS011;4335;48.860;9.198;2023-02-28T06:12:17;7.67;;;5.30;;
8594;SDS011;4335;48.860;9.198;2023-02-28T06:14:46;6.60;;;5.13;;
8594;SDS011;4335;48.860;9.198;2023-02-28T06:17:18;8.10;;;5.13;;
8594;SDS011;4335;48.860;9.198;2023-02-28T06:19:45;7.23;;;5.17;;
8594;SDS011;4335;48.860;9.198;2023-02-28T06:22:13;5.93;;;4.93;;
8594;SDS011;4335;48.860;9.198;2023-02-28T06:24:40;7.47;;;5.53;;
8594;SDS011;4335;48.860;9.198;2023-02-28T06:27:07;6.57;;;5.30;;
8594;SDS011;4335;48.860;9.198;2023-02-28T06:29:34;6.77;;;5.03;;
8594;SDS011;4335;48.860;9.198;2023-02-28T06:32:03;5.77;;;5.10;;
8594;SDS011;4335;48.860;9.198;2023-02-28T06:34:33;8.27;;;6.10;;
8594;SDS011;4335;48.860;9.198;2023-02-28T06:36:59;7.87;;;5.57;;
8594;SDS011;4335;48.860;9.198;2023-02-28T06:39:33;6.23;;;4.53;;
8594;SDS011;4335;48.860;9.198;2023-02-28T06:42:00;5.87;;;5.33;;
8594;SDS011;4335;48.860;9.198;2023-02-28T06:44:27;7.83;;;5.70;;
8594;SDS011;4335;48.860;9.198;2023-02-28T06:47:00;6.97;;;5.30;;
8594;SDS011;4335;48.860;9.198;2023-02-28T06:49:31;5.97;;;5.00;;
8594;SDS011;4335;48.860;9.198;2023-02-28T06:51:59;7.00;;;5.10;;
8594;SDS011;4335;48.860;9.198;2023-02-28T06:54:28;6.27;;;4.73;;
8594;SDS011;4335;48.860;9.198;2023-02-28T06:56:56;7.13;;;5.00;;
8594;SDS011;4335;48.860;9.198;2023-02-28T06:59:24;6.07;;;5.23;;
8594;SDS011;4335;48.860;9.198;2023-02-28T07:01:51;7.30;;;5.03;;
8594;SDS011;4335;48.860;9.198;2023-02-28T07:04:17;7.20;;;5.40;;
8594;SDS011;4335;48.860;9.198;2023-02-28T07:06:47;8.00;;;5.10;;
8594;SDS011;4335;48.860;9.198;2023-02-28T07:09:19;9.47;;;6.10;;
8594;SDS011;4335;48.860;9.198;2023-02-28T07:11:49;7.03;;;4.80;;
8594;SDS011;4335;48.860;9.198;2023-02-28T07:14:16;6.80;;;5.13;;
8594;SDS011;4335;48.860;9.198;2023-02-28T07:16:43;7.23;;;5.27;;
8594;SDS011;4335;48.860;9.198;2023-02-28T07:19:10;8.43;;;5.27;;
8594;SDS011;4335;48.860;9.198;2023-02-28T07:21:43;5.00;;;4.50;;
8594;SDS011;4335;48.860;9.198;2023-02-28T07:24:13;7.80;;;5.23;;
8594;SDS011;4335;48.860;9.198;2023-02-28T07:26:40;7.57;;;5.33;;
8594;SDS011;4335;48.860;9.198;2023-02-28T07:29:07;6.23;;;5.20;;
8594;SDS011;4335;48.860;9.198;2023-02-28T07:31:34;8.27;;;6.67;;
8594;SDS011;4335;48.860;9.198;2023-02-28T07:34:04;7.23;;;5.23;;
8594;SDS011;4335;48.860;9.198;2023-02-28T07:36:31;6.23;;;5.13;;
8594;SDS011;4335;48.860;9.198;2023-02-28T07:38:58;6.60;;;5.20;;
8594;SDS011;4335;48.860;9.198;2023-02-28T07:41:25;8.53;;;5.70;;
8594;SDS011;4335;48.860;9.198;2023-02-28T07:43:55;9.43;;;5.10;;
8594;SDS011;4335;48.860;9.198;2023-02-28T07:46:22;7.07;;;6.07;;
8594;SDS011;4335;48.860;9.198;2023-02-28T07:48:52;6.97;;;5.27;;
8594;SDS011;4335;48.860;9.198;2023-02-28T07:51:21;6.73;;;5.70;;
8594;SDS011;4335;48.860;9.198;2023-02-28T07:53:48;7.30;;;5.80;;
8594;SDS011;4335;48.860;9.198;2023-02-28T07:56:15;7.43;;;5.90;;
8594;SDS011;4335;48.860;9.198;2023-02-28T07:58:45;5.53;;;5.00;;
8594;SDS011;4335;48.860;9.198;2023-02-28T08:01:12;7.67;;;5.70;;
8594;SDS011;4335;48.860;9.198;2023-02-28T08:03:39;6.97;;;5.43;;
8594;SDS011;4335;48.860;9.198;2023-02-28T08:06:07;8.13;;;5.33;;
8594;SDS011;4335;48.860;9.198;2023-02-28T08:08:41;8.67;;;6.37;;
8594;SDS011;4335;48.860;9.198;2023-02-28T08:11:07;6.43;;;5.80;;
8594;SDS011;4335;48.860;9.198;2023-02-28T08:13:34;7.97;;;6.13;;
8594;SDS011;4335;48.860;9.198;2023-02-28T08:16:01;6.83;;;5.47;;
8594;SDS011;4335;48.860;9.198;2023-02-28T08:18:28;7.60;;;6.03;;
8594;SDS011;4335;48.860;9.198;2023-02-28T08:20:55;7.80;;;5.37;;
8594;SDS011;4335;48.860;9.198;2023-02-28T08:23:22;10.03;;;6.20;;
8594;SDS011;4335;48.860;9.198;2023-02-28T08:25:53;6.97;;;6.10;;
8594;SDS011;4335;48.860;9.198;2023-02-28T08:28:20;10.07;;;6.20;;
8594;SDS011;4335;48.860;9.198;2023-02-28T08:30:47;7.03;;;5.83;;
8594;SDS011;4335;48.860;9.198;2023-02-28T08:33:16;10.37;;;6.83;;
8594;SDS011;4335;48.860;9.198;2023-02-28T08:35:43;8.83;;;6.17;;
8594;SDS011;4335;48.860;9.198;2023-02-28T08:38:10;8.70;;;6.27;;
8594;SDS011;4335;48.860;9.198;2023-02-28T08:40:36;7.33;;;6.10;;
8594;SDS011;4335;48.860;9.198;2023-02-28T08:43:04;9.67;;;6.57;;
8594;SDS011;4335;48.860;9.198;2023-02-28T08:45:33;8.27;;;6.57;;
8594;SDS011;4335;48.860;9.198;2023-02-28T08:48:06;9.03;;;6.57;;
8594;SDS011;4335;48.860;9.198;2023-02-28T08:50:33;8.43;;;6.13;;
8594;SDS011;4335;48.860;9.198;2023-02-28T08:52:59;7.73;;;6.23;;
8594;SDS011;4335;48.860;9.198;2023-02-28T08:55:32;8.50;;;7.30;;
8594;SDS011;4335;48.860;9.198;2023-02-28T08:58:02;8.93;;;6.10;;
8594;SDS011;4335;48.860;9.198;2023-02-28T09:00:30;9.73;;;7.20;;
8594;SDS011;4335;48.860;9.198;2023-02-28T09:02:57;7.80;;;5.27;;
8594;SDS011;4335;48.860;9.198;2023-02-28T09:05:23;9.13;;;6.33;;
8594;SDS011;4335;48.860;9.198;2023-02-28T09:07:53;9.67;;;6.97;;
8594;SDS011;4335;48.860;9.198;2023-02-28T09:10:19;8.17;;;6.00;;
8594;SDS011;4335;48.860;9.198;2023-02-28T09:12:46;9.27;;;6.77;;
8594;SDS011;4335;48.860;9.198;2023-02-28T09:15:16;7.80;;;6.37;;
8594;SDS011;4335;48.860;9.198;2023-02-28T09:17:46;10.17;;;5.77;;
8594;SDS011;4335;48.860;9.198;2023-02-28T09:20:13;8.50;;;6.37;;
8594;SDS011;4335;48.860;9.198;2023-02-28T09:22:43;10.97;;;7.17;;
8594;SDS011;4335;48.860;9.198;2023-02-28T09:25:09;9.07;;;6.63;;
8594;SDS011;4335;48.860;9.198;2023-02-28T09:27:36;7.30;;;5.93;;
8594;SDS011;4335;48.860;9.198;2023-02-28T09:30:03;7.40;;;6.27;;
8594;SDS011;4335;48.860;9.198;2023-02-28T09:32:31;9.37;;;6.83;;
8594;SDS011;4335;48.860;9.198;2023-02-28T09:34:58;8.53;;;7.17;;
8594;SDS011;4335;48.860;9.198;2023-02-28T09:37:24;11.73;;;7.93;;
8594;SDS011;4335;48.860;9.198;2023-02-28T09:39:54;9.10;;;7.40;;
8594;SDS011;4335;48.860;9.198;2023-02-28T09:42:21;11.03;;;6.90;;
8594;SDS011;4335;48.860;9.198;2023-02-28T09:44:51;8.70;;;6.80;;
8594;SDS011;4335;48.860;9.198;2023-02-28T09:47:21;9.63;;;6.70;;
8594;SDS011;4335;48.860;9.198;2023-02-28T09:49:59;9.47;;;6.23;;
8594;SDS011;4335;48.860;9.198;2023-02-28T09:52:33;8.23;;;6.57;;
8594;SDS011;4335;48.860;9.198;2023-02-28T09:55:00;8.77;;;6.43;;
8594;SDS011;4335;48.860;9.198;2023-02-28T09:57:42;11.90;;;7.37;;
8594;SDS011;4335;48.860;9.198;2023-02-28T10:00:12;9.97;;;7.10;;
8594;SDS011;4335;48.860;9.198;2023-02-28T10:02:49;9.27;;;7.20;;
8594;SDS011;4335;48.860;9.198;2023-02-28T10:05:31;9.13;;;7.67;;
8594;SDS011;4335;48.860;9.198;2023-02-28T10:08:11;9.60;;;5.73;;
8594;SDS011;4335;48.860;9.198;2023-02-28T10:10:44;9.53;;;6.20;;
8594;SDS011;4335;48.860;9.198;2023-02-28T10:13:14;9.80;;;5.97;;
8594;SDS011;4335;48.860;9.198;2023-02-28T10:15:50;8.95;;;7.38;;
8594;SDS011;4335;48.860;9.198;2023-02-28T10:18:21;8.17;;;6.77;;
8594;SDS011;4335;48.860;9.198;2023-02-28T10:20:51;10.33;;;5.93;;
8594;SDS011;4335;48.860;9.198;2023-02-28T10:23:21;10.20;;;7.53;;
8594;SDS011;4335;48.860;9.198;2023-02-28T10:25:53;7.23;;;6.13;;
8594;SDS011;4335;48.860;9.198;2023-02-28T10:28:23;12.13;;;7.00;;
8594;SDS011;4335;48.860;9.198;2023-02-28T10:30:52;8.17;;;6.80;;
8594;SDS011;4335;48.860;9.198;2023-02-28T10:33:22;7.00;;;6.27;;
8594;SDS011;4335;48.860;9.198;2023-02-28T10:35:50;9.30;;;7.00;;
8594;SDS011;4335;48.860;9.198;2023-02-28T10:38:23;6.90;;;6.07;;
8594;SDS011;4335;48.860;9.198;2023-02-28T10:40:51;9.43;;;5.17;;
8594;SDS011;4335;48.860;9.198;2023-02-28T10:43:28;8.57;;;6.33;;
8594;SDS011;4335;48.860;9.198;2023-02-28T10:45:56;8.00;;;6.90;;
8594;SDS011;4335;48.860;9.198;2023-02-28T10:48:32;8.53;;;7.63;;
8594;SDS011;4335;48.860;9.198;2023-02-28T10:51:05;9.43;;;6.33;;
8594;SDS011;4335;48.860;9.198;2023-02-28T10:53:36;9.53;;;7.00;;
8594;SDS011;4335;48.860;9.198;2023-02-28T10:56:14;7.80;;;6.60;;
8594;SDS011;4335;48.860;9.198;2023-02-28T10:58:45;10.27;;;7.30;;
8594;SDS011;4335;48.860;9.198;2023-02-28T11:01:19;8.30;;;6.63;;
8594;SDS011;4335;48.860;9.198;2023-02-28T11:03:47;8.63;;;6.40;;
8594;SDS011;4335;48.860;9.198;2023-02-28T11:06:19;7.97;;;6.30;;
8594;SDS011;4335;48.860;9.198;2023-02-28T11:08:49;8.07;;;6.80;;
8594;SDS011;4335;48.860;9.198;2023-02-28T11:11:21;8.27;;;6.57;;
8594;SDS011;4335;48.860;9.198;2023-02-28T11:13:53;7.77;;;6.70;;
8594;SDS011;4335;48.860;9.198;2023-02-28T11:16:21;6.73;;;6.00;;
8594;SDS011;4335;48.860;9.198;2023-02-28T11:18:59;8.27;;;6.90;;
8594;SDS011;4335;48.860;9.198;2023-02-28T11:21:27;7.33;;;5.93;;
8594;SDS011;4335;48.860;9.198;2023-02-28T11:23:59;11.37;;;6.97;;
8594;SDS011;4335;48.860;9.198;2023-02-28T11:26:37;7.93;;;7.03;;
8594;SDS011;4335;48.860;9.198;2023-02-28T11:32:11;8.03;;;6.43;;
8594;SDS011;4335;48.860;9.198;2023-02-28T11:34:40;8.00;;;7.03;;
8594;SDS011;4335;48.860;9.198;2023-02-28T11:37:12;8.70;;;6.37;;
8594;SDS011;4335;48.860;9.198;2023-02-28T11:39:41;9.07;;;7.23;;
8594;SDS011;4335;48.860;9.198;2023-02-28T11:42:15;7.47;;;6.67;;
8594;SDS011;4335;48.860;9.198;2023-02-28T11:45:15;7.73;;;6.53;;
8594;SDS011;4335;48.860;9.198;2023-02-28T11:47:52;7.37;;;6.57;;
8594;SDS011;4335;48.860;9.198;2023-02-28T11:50:35;8.83;;;7.30;;
8594;SDS011;4335;48.860;9.198;2023-02-28T11:53:16;8.43;;;6.60;;
8594;SDS011;4335;48.860;9.198;2023-02-28T11:55:58;8.93;;;6.60;;
8594;SDS011;4335;48.860;9.198;2023-02-28T11:58:32;8.40;;;6.87;;
8594;SDS011;4335;48.860;9.198;2023-02-28T12:04:09;10.13;;;7.17;;
8594;SDS011;4335;48.860;9.198;2023-02-28T12:06:45;10.27;;;7.50;;
8594;SDS011;4335;48.860;9.198;2023-02-28T12:09:27;9.23;;;6.93;;
8594;SDS011;4335;48.860;9.198;2023-02-28T12:12:08;9.27;;;6.97;;
8594;SDS011;4335;48.860;9.198;2023-02-28T12:15:14;7.37;;;6.57;;
8594;SDS011;4335;48.860;9.198;2023-02-28T12:17:55;10.97;;;7.97;;
8594;SDS011;4335;48.860;9.198;2023-02-28T12:20:38;10.27;;;7.77;;
8594;SDS011;4335;48.860;9.198;2023-02-28T12:23:22;10.00;;;7.43;;
8594;SDS011;4335;48.860;9.198;2023-02-28T12:26:08;7.93;;;6.03;;
8594;SDS011;4335;48.860;9.198;2023-02-28T12:28:49;7.50;;;6.47;;
8594;SDS011;4335;48.860;9.198;2023-02-28T12:31:20;8.87;;;6.30;;
8594;SDS011;4335;48.860;9.198;2023-02-28T12:33:52;8.07;;;7.03;;
8594;SDS011;4335;48.860;9.198;2023-02-28T12:36:23;9.77;;;7.87;;
8594;SDS011;4335;48.860;9.198;2023-02-28T12:38:59;8.53;;;6.43;;
8594;SDS011;4335;48.860;9.198;2023-02-28T12:41:33;8.03;;;6.83;;
8594;SDS011;4335;48.860;9.198;2023-02-28T12:44:08;9.07;;;6.63;;
8594;SDS011;4335;48.860;9.198;2023-02-28T12:46:38;7.17;;;6.00;;
8594;SDS011;4335;48.860;9.198;2023-02-28T12:49:09;7.93;;;7.07;;
8594;SDS011;4335;48.860;9.198;2023-02-28T12:51:40;7.50;;;6.13;;
8594;SDS011;4335;48.860;9.198;2023-02-28T12:54:10;7.73;;;6.93;;
8594;SDS011;4335;48.860;9.198;2023-02-28T12:56:47;8.50;;;6.93;;
8594;SDS011;4335;48.860;9.198;2023-02-28T12:59:20;7.20;;;6.00;;
8594;SDS011;4335;48.860;9.198;2023-02-28T13:08:21;9.30;;;6.40;;
8594;SDS011;4335;48.860;9.198;2023-02-28T13:11:02;9.93;;;7.13;;
8594;SDS011;4335;48.860;9.198;2023-02-28T13:13:33;8.27;;;6.30;;
8594;SDS011;4335;48.860;9.198;2023-02-28T13:16:03;9.83;;;7.30;;
8594;SDS011;4335;48.860;9.198;2023-02-28T13:18:36;8.03;;;6.83;;
8594;SDS011;4335;48.860;9.198;2023-02-28T13:24:10;10.57;;;6.80;;
8594;SDS011;4335;48.860;9.198;2023-02-28T13:33:24;9.97;;;5.77;;
8594;SDS011;4335;48.860;9.198;2023-02-28T13:38:48;7.60;;;6.50;;
8594;SDS011;4335;48.860;9.198;2023-02-28T13:44:08;7.17;;;5.87;;
8594;SDS011;4335;48.860;9.198;2023-02-28T13:52:48;7.77;;;6.63;;
8594;SDS011;4335;48.860;9.198;2023-02-28T13:55:24;8.00;;;7.03;;
8594;SDS011;4335;48.860;9.198;2023-02-28T13:58:03;7.53;;;5.90;;
8594;SDS011;4335;48.860;9.198;2023-02-28T14:00:55;7.37;;;6.53;;
8594;SDS011;4335;48.860;9.198;2023-02-28T14:03:57;8.20;;;7.03;;
8594;SDS011;4335;48.860;9.198;2023-02-28T14:06:45;6.50;;;5.67;;
8594;SDS011;4335;48.860;9.198;2023-02-28T14:09:23;7.43;;;6.40;;
8594;SDS011;4335;48.860;9.198;2023-02-28T14:11:53;8.63;;;7.70;;
8594;SDS011;4335;48.860;9.198;2023-02-28T14:17:21;9.93;;;6.60;;
8594;SDS011;4335;48.860;9.198;2023-02-28T14:19:48;10.53;;;7.17;;
8594;SDS011;4335;48.860;9.198;2023-02-28T14:22:32;7.17;;;6.40;;
8594;SDS011;4335;48.860;9.198;2023-02-28T14:25:20;9.03;;;7.47;;
8594;SDS011;4335;48.860;9.198;2023-02-28T14:27:58;9.17;;;6.53;;
8594;SDS011;4335;48.860;9.198;2023-02-28T14:30:51;7.67;;;6.73;;
8594;SDS011;4335;48.860;9.198;2023-02-28T14:33:25;9.50;;;7.10;;
8594;SDS011;4335;48.860;9.198;2023-02-28T14:36:03;8.20;;;6.27;;
8594;SDS011;4335;48.860;9.198;2023-02-28T14:38:36;7.87;;;6.57;;
8594;SDS011;4335;48.860;9.198;2023-02-28T14:41:15;5.90;;;5.27;;
8594;SDS011;4335;48.860;9.198;2023-02-28T14:43:48;7.43;;;6.40;;
8594;SDS011;4335;48.860;9.198;2023-02-28T14:46:22;7.67;;;6.10;;
8594;SDS011;4335;48.860;9.198;2023-02-28T14:48:52;7.67;;;6.83;;
8594;SDS011;4335;48.860;9.198;2023-02-28T14:51:22;7.80;;;6.87;;
8594;SDS011;4335;48.860;9.198;2023-02-28T14:53:52;9.53;;;6.63;;
8594;SDS011;4335;48.860;9.198;2023-02-28T14:56:23;8.77;;;6.90;;
8594;SDS011;4335;48.860;9.198;2023-02-28T14:58:55;9.07;;;7.23;;
8594;SDS011;4335;48.860;9.198;2023-02-28T15:01:23;9.33;;;6.87;;
8594;SDS011;4335;48.860;9.198;2023-02-28T15:03:57;8.27;;;7.40;;
8594;SDS011;4335;48.860;9.198;2023-02-28T15:06:29;8.00;;;6.90;;
8594;SDS011;4335;48.860;9.198;2023-02-28T15:09:10;10.23;;;7.47;;
8594;SDS011;4335;48.860;9.198;2023-02-28T15:11:40;8.07;;;7.27;;
8594;SDS011;4335;48.860;9.198;2023-02-28T15:14:15;9.17;;;7.40;;
8594;SDS011;4335;48.860;9.198;2023-02-28T15:16:44;10.03;;;7.97;;
8594;SDS011;4335;48.860;9.198;2023-02-28T15:19:15;7.83;;;7.03;;
8594;SDS011;4335;48.860;9.198;2023-02-28T15:21:46;9.00;;;7.07;;
8594;SDS011;4335;48.860;9.198;2023-02-28T15:24:17;10.43;;;7.10;;
8594;SDS011;4335;48.860;9.198;2023-02-28T15:26:50;8.17;;;7.17;;
8594;SDS011;4335;48.860;9.198;2023-02-28T15:29:20;9.50;;;7.37;;
8594;SDS011;4335;48.860;9.198;2023-02-28T15:31:49;8.43;;;6.97;;
8594;SDS011;4335;48.860;9.198;2023-02-28T15:34:18;9.33;;;7.60;;
8594;SDS011;4335;48.860;9.198;2023-02-28T15:36:46;8.17;;;6.67;;
8594;SDS011;4335;48.860;9.198;2023-02-28T15:39:21;8.17;;;7.37;;
8594;SDS011;4335;48.860;9.198;2023-02-28T15:41:49;9.97;;;6.93;;
8594;SDS011;4335;48.860;9.198;2023-02-28T15:44:29;8.03;;;6.77;;
8594;SDS011;4335;48.860;9.198;2023-02-28T15:47:00;10.17;;;6.43;;
8594;SDS011;4335;48.860;9.198;2023-02-28T15:49:29;8.50;;;6.80;;
8594;SDS011;4335;48.860;9.198;2023-02-28T15:52:01;8.20;;;6.67;;
8594;SDS011;4335;48.860;9.198;2023-02-28T15:54:29;8.47;;;6.93;;
8594;SDS011;4335;48.860;9.198;2023-02-28T15:57:00;10.60;;;7.03;;
8594;SDS011;4335;48.860;9.198;2023-02-28T15:59:39;8.23;;;6.60;;
8594;SDS011;4335;48.860;9.198;2023-02-28T16:02:16;8.23;;;7.30;;
8594;SDS011;4335;48.860;9.198;2023-02-28T16:04:54;7.57;;;6.77;;
8594;SDS011;4335;48.860;9.198;2023-02-28T16:07:25;9.53;;;7.40;;
8594;SDS011;4335;48.860;9.198;2023-02-28T16:09:53;7.77;;;6.83;;
8594;SDS011;4335;48.860;9.198;2023-02-28T16:12:20;8.83;;;7.13;;
8594;SDS011;4335;48.860;9.198;2023-02-28T16:14:51;8.53;;;6.40;;
8594;SDS011;4335;48.860;9.198;2023-02-28T16:17:22;11.17;;;7.03;;
8594;SDS011;4335;48.860;9.198;2023-02-28T16:19:50;9.23;;;7.50;;
8594;SDS011;4335;48.860;9.198;2023-02-28T16:22:17;9.20;;;7.73;;
8594;SDS011;4335;48.860;9.198;2023-02-28T16:24:44;8.20;;;6.90;;
8594;SDS011;4335;48.860;9.198;2023-02-28T16:27:15;8.40;;;7.50;;
8594;SDS011;4335;48.860;9.198;2023-02-28T16:29:48;7.97;;;7.17;;
8594;SDS011;4335;48.860;9.198;2023-02-28T16:32:15;9.47;;;7.17;;